createdAt,value
2022-10-25T00:13:02.897Z,3.9
2022-10-25T00:28:11.871Z,3
2022-10-25T00:43:21.129Z,3
2022-10-25T00:58:32.293Z,4.2
2022-10-25T01:13:41.826Z,4.1
2022-10-25T01:28:51.077Z,2.8
2022-10-25T01:44:00.960Z,5.1
2022-10-25T01:59:12.448Z,3.8
2022-10-25T02:14:21.943Z,13.6
2022-10-25T02:29:31.485Z,7
2022-10-25T02:44:40.326Z,8.7
2022-10-25T02:59:49.623Z,7.7
2022-10-25T03:14:59.244Z,9.2
2022-10-25T03:30:08.945Z,10.9
2022-10-25T03:45:18.414Z,9.1
2022-10-25T04:00:28.273Z,10.8
2022-10-25T04:15:37.927Z,17.1
2022-10-25T04:30:47.803Z,11.5
2022-10-25T04:45:57.244Z,14.3
2022-10-25T05:01:07.162Z,14
2022-10-25T05:16:16.872Z,7.3
2022-10-25T05:31:26.795Z,8.3
2022-10-25T05:46:36.360Z,8.1
2022-10-25T06:01:46.830Z,9
2022-10-25T06:16:57.110Z,10.8
2022-10-25T06:32:07.351Z,13.9
2022-10-25T06:47:18.691Z,9.2
2022-10-25T07:02:28.668Z,8.3
2022-10-25T07:17:38.511Z,12.7
2022-10-25T07:32:52.265Z,9.8
2022-10-25T07:48:02.269Z,11
2022-10-25T08:03:12.306Z,7.9
2022-10-25T08:18:21.872Z,13.5
2022-10-25T08:33:31.716Z,10.9
2022-10-25T08:48:41.625Z,9.9
2022-10-25T09:03:51.720Z,10.4
2022-10-25T09:19:01.612Z,6.4
2022-10-25T09:34:11.095Z,7.6
2022-10-25T09:49:20.890Z,7.9
2022-10-25T10:04:33.557Z,6.9
2022-10-25T10:19:43.404Z,5.4
2022-10-25T10:34:53.261Z,6.9
2022-10-25T10:50:02.593Z,6.5
2022-10-25T11:05:12.064Z,8.2
2022-10-25T11:20:22.282Z,5.1
2022-10-25T11:35:37.334Z,7.1
2022-10-25T11:50:48.805Z,8.9
2022-10-25T12:05:58.836Z,6.7
2022-10-25T12:21:09.502Z,5.6
2022-10-25T12:36:20.041Z,6.4
2022-10-25T12:51:34.283Z,3
2022-10-25T13:06:44.498Z,4.9
2022-10-25T13:21:57.308Z,5.4
2022-10-25T13:37:07.033Z,4.6
2022-10-25T13:52:16.976Z,7.4
2022-10-25T14:07:26.095Z,3.7
2022-10-25T14:22:35.123Z,4.6
2022-10-25T14:37:45.234Z,7.6
2022-10-25T14:53:01.430Z,3
2022-10-25T15:08:10.344Z,4.5
2022-10-25T15:23:19.664Z,5.3
2022-10-25T15:39:11.574Z,3
2022-10-25T15:54:26.818Z,8.1
2022-10-25T16:09:36.861Z,5.9
2022-10-25T16:24:46.388Z,8.5
2022-10-25T16:39:55.222Z,5
2022-10-25T16:55:04.910Z,8.8
2022-10-25T17:10:14.537Z,5.1
2022-10-25T17:25:23.668Z,7.9
2022-10-25T17:40:34.172Z,11.9
2022-10-25T17:55:43.822Z,8.7
2022-10-25T18:10:53.622Z,16.3
2022-10-25T18:26:02.733Z,6.4
2022-10-25T18:41:12.120Z,6.5
2022-10-25T18:56:22.643Z,11.1
2022-10-25T19:11:33.088Z,9.5
2022-10-25T19:26:41.946Z,10.7
2022-10-25T19:41:51.531Z,20.5
2022-10-25T19:57:01.922Z,11.4
2022-10-25T20:12:11.005Z,15.6
2022-10-25T20:27:20.107Z,14.3
2022-10-25T20:42:29.397Z,13.7
2022-10-25T20:57:38.635Z,10.4
2022-10-25T21:12:47.475Z,13.2
2022-10-25T21:27:57.382Z,15.2
2022-10-25T21:43:06.746Z,15.8
2022-10-25T21:58:16.590Z,11.7
2022-10-25T22:13:26.060Z,16.6
2022-10-25T22:28:41.588Z,16.6
2022-10-25T22:43:51.103Z,13.8
2022-10-25T22:59:00.677Z,13
2022-10-25T23:14:17.736Z,17.3
2022-10-25T23:29:27.132Z,10.6
2022-10-25T23:44:36.762Z,13
2022-10-25T23:59:46.236Z,10.9
